Time;durP1;ratioP1;P1;durP2;ratioP2;P2;SDS_P1;SDS_P2;PMS_P1;PMS_P2;Temp;Humidity;BMP_temperature;BMP_pressure;BME280_temperature;BME280_humidity;BME280_pressure;Samples;Min_cycle;Max_cycle;Signal;HPM_P1;HPM_P2
2023/05/25 00:00:48;;;;;;;16.63;6.38;;;12.20;99.90;;;11.62;100.00;101949.38;4167899;28;20044;-75
2023/05/25 00:02:51;;;;;;;14.38;6.65;;;12.20;99.90;;;11.60;100.00;101956.59;4177473;28;20071;-75
2023/05/25 00:04:52;;;;;;;8.10;5.50;;;12.20;99.90;;;11.59;100.00;101954.09;4173569;28;20401;-75
2023/05/25 00:06:53;;;;;;;8.00;5.20;;;12.20;99.90;;;11.54;100.00;101948.38;4172245;28;20020;-75
2023/05/25 00:08:55;;;;;;;9.80;5.78;;;12.10;99.90;;;11.54;100.00;101949.22;4177882;28;20024;-75
2023/05/25 00:10:56;;;;;;;11.07;5.25;;;12.10;99.90;;;11.53;100.00;101952.81;4184177;28;20025;-75
2023/05/25 00:12:57;;;;;;;14.77;7.30;;;12.10;99.90;;;11.49;100.00;101950.59;4180698;28;20032;-75
2023/05/25 00:14:58;;;;;;;14.70;6.72;;;12.10;99.90;;;11.50;100.00;101954.88;4167732;28;20467;-75
2023/05/25 00:17:02;;;;;;;13.63;5.72;;;12.00;99.90;;;11.50;100.00;101953.06;4167516;28;20029;-74
2023/05/25 00:19:06;;;;;;;11.73;5.63;;;12.00;99.90;;;11.45;100.00;101951.81;4169495;28;20025;-75
2023/05/25 00:21:06;;;;;;;14.95;6.60;;;12.00;99.90;;;11.41;100.00;101947.78;4181085;28;20047;-75
2023/05/25 00:23:07;;;;;;;10.20;5.47;;;12.00;99.90;;;11.40;100.00;101948.72;4171082;28;20026;-75
2023/05/25 00:25:08;;;;;;;11.45;7.35;;;12.00;99.90;;;11.40;100.00;101954.03;4168757;28;20033;-75
2023/05/25 00:27:09;;;;;;;12.18;6.40;;;12.00;99.90;;;11.38;100.00;101950.69;4168988;28;20036;-75
2023/05/25 00:29:11;;;;;;;12.80;6.78;;;12.00;99.90;;;11.33;100.00;101953.69;4180638;28;20022;-75
2023/05/25 00:31:12;;;;;;;12.60;6.00;;;11.90;99.90;;;11.35;100.00;101950.94;4167920;28;20529;-75
2023/05/25 00:33:14;;;;;;;12.23;6.55;;;11.90;99.90;;;11.31;100.00;101954.81;4173280;28;20040;-75
2023/05/25 00:35:15;;;;;;;14.55;6.32;;;11.90;99.90;;;11.31;100.00;101955.66;4167659;28;20084;-75
2023/05/25 00:37:16;;;;;;;13.23;5.82;;;11.90;99.90;;;11.31;100.00;101960.09;4167444;28;20112;-75
2023/05/25 00:39:20;;;;;;;10.00;5.82;;;11.90;99.90;;;11.27;100.00;101958.66;4177598;28;20034;-75
2023/05/25 00:41:22;;;;;;;12.20;6.53;;;11.80;99.90;;;11.23;100.00;101952.81;4174228;28;20025;-75
2023/05/25 00:43:23;;;;;;;13.38;6.70;;;11.80;99.90;;;11.25;100.00;101960.59;4173695;28;20089;-75
2023/05/25 00:45:24;;;;;;;11.40;5.55;;;11.80;99.90;;;11.24;100.00;101959.75;4171961;28;20041;-75
2023/05/25 00:47:26;;;;;;;10.70;6.45;;;11.80;99.90;;;11.21;100.00;101962.66;4171674;28;20435;-75
2023/05/25 00:49:29;;;;;;;13.23;6.32;;;11.80;99.90;;;11.19;100.00;101958.50;4183869;28;20033;-75
2023/05/25 00:51:35;;;;;;;8.68;5.45;;;11.80;99.90;;;11.18;100.00;101959.44;4187319;28;20056;-75
2023/05/25 00:53:36;;;;;;;11.88;5.60;;;11.80;99.90;;;11.16;100.00;101956.94;4187111;28;20152;-75
2023/05/25 00:56:21;;;;;;;14.20;6.15;;;11.80;99.90;;;11.14;100.00;101958.84;4187474;28;20057;-75
2023/05/25 00:58:29;;;;;;;16.17;7.43;;;11.70;99.90;;;11.11;100.00;101957.31;4188105;28;20527;-75
2023/05/25 01:00:34;;;;;;;16.90;6.20;;;11.70;99.90;;;11.11;100.00;101952.03;4174699;28;20036;-75
2023/05/25 01:02:37;;;;;;;14.35;6.20;;;11.70;99.90;;;11.09;100.00;101945.22;4170469;28;20056;-75
2023/05/25 01:04:45;;;;;;;14.02;5.95;;;11.70;99.90;;;11.09;100.00;101955.78;4173495;28;20528;-75
2023/05/25 01:06:48;;;;;;;9.70;5.63;;;11.60;99.90;;;11.06;100.00;101953.41;4170458;28;20140;-75
2023/05/25 01:08:59;;;;;;;11.65;5.57;;;11.70;99.90;;;11.05;100.00;101943.81;4188881;28;20028;-75
2023/05/25 01:11:02;;;;;;;12.18;6.25;;;11.60;99.90;;;11.02;100.00;101949.38;4171656;28;20025;-75
2023/05/25 01:13:05;;;;;;;11.60;5.88;;;11.60;99.90;;;11.03;100.00;101948.38;4184365;28;20427;-75
2023/05/25 01:15:08;;;;;;;9.52;4.68;;;11.60;99.90;;;10.97;100.00;101944.44;4170561;28;20040;-75
2023/05/25 01:17:13;;;;;;;11.38;5.60;;;11.60;99.90;;;10.99;100.00;101953.06;4170106;28;20038;-75
2023/05/25 01:19:14;;;;;;;8.82;4.80;;;11.50;99.90;;;10.91;100.00;101937.06;4181978;28;20029;-75
2023/05/25 01:21:48;;;;;;;12.98;5.72;;;11.60;99.90;;;10.95;100.00;101950.84;4172936;28;20048;-75
2023/05/25 01:24:01;;;;;;;8.57;4.85;;;11.50;99.90;;;10.91;100.00;101942.34;4163156;28;20044;-75
2023/05/25 01:26:08;;;;;;;13.60;5.75;;;11.50;99.90;;;10.84;100.00;101943.00;4183929;28;20087;-75
2023/05/25 01:28:20;;;;;;;9.63;4.95;;;11.40;99.90;;;10.83;100.00;101941.31;4172162;28;20561;-75
2023/05/25 01:30:25;;;;;;;12.80;5.72;;;11.40;99.90;;;10.81;100.00;101941.41;4186127;28;20515;-74
2023/05/25 01:32:27;;;;;;;12.05;5.70;;;11.40;99.90;;;10.77;100.00;101947.94;4169818;28;20083;-75
2023/05/25 01:34:30;;;;;;;12.98;6.13;;;11.40;99.90;;;10.82;100.00;101956.31;4170442;28;20029;-75
2023/05/25 01:36:32;;;;;;;11.57;5.00;;;11.40;99.90;;;10.78;100.00;101956.69;4170172;28;20026;-75
2023/05/25 01:38:33;;;;;;;14.57;5.72;;;11.40;99.90;;;10.75;100.00;101951.66;4175133;28;20017;-75
2023/05/25 01:40:34;;;;;;;14.13;5.78;;;11.40;99.90;;;10.75;100.00;101957.75;4172426;28;20490;-75
2023/05/25 01:42:35;;;;;;;11.10;5.57;;;11.40;99.90;;;10.75;100.00;101954.31;4175955;28;20044;-75
2023/05/25 01:44:37;;;;;;;17.45;5.32;;;11.30;99.90;;;10.72;100.00;101950.09;4171255;28;20041;-75
2023/05/25 01:46:40;;;;;;;9.18;5.13;;;11.30;99.90;;;10.68;100.00;101943.41;4180467;28;20100;-75
2023/05/25 01:49:11;;;;;;;13.25;5.55;;;11.30;99.90;;;10.70;100.00;101954.69;4169640;28;20037;-75
2023/05/25 01:51:57;;;;;;;16.23;6.03;;;11.20;99.90;;;10.60;100.00;101948.50;4171071;28;20370;-75
2023/05/25 01:54:10;;;;;;;10.23;5.80;;;11.20;99.90;;;10.63;100.00;101956.16;4187699;28;20069;-75
2023/05/25 01:56:13;;;;;;;12.10;4.40;;;11.20;99.90;;;10.58;100.00;101950.41;4181760;28;20017;-75
2023/05/25 01:58:15;;;;;;;14.10;5.13;;;11.20;99.90;;;10.53;100.00;101947.31;4186343;28;20057;-75
2023/05/25 02:00:18;;;;;;;14.23;6.07;;;11.20;99.90;;;10.54;100.00;101954.28;4169957;28;20112;-75
2023/05/25 02:02:19;;;;;;;14.65;5.78;;;11.10;99.90;;;10.51;100.00;101949.25;4169566;28;20030;-75
2023/05/25 02:04:21;;;;;;;13.63;5.28;;;11.10;99.90;;;10.50;100.00;101956.34;4170151;28;20083;-74
2023/05/25 02:06:22;;;;;;;7.88;4.88;;;11.10;99.90;;;10.46;100.00;101956.69;4173556;28;20022;-75
2023/05/25 02:08:23;;;;;;;12.25;5.68;;;11.10;99.90;;;10.46;100.00;101961.97;4182849;28;20032;-75
2023/05/25 02:10:24;;;;;;;10.27;5.43;;;11.10;99.90;;;10.41;100.00;101959.72;4170888;28;20030;-75
2023/05/25 02:12:25;;;;;;;11.60;5.13;;;11.00;99.90;;;10.41;100.00;101959.72;4178143;28;20029;-75
2023/05/25 02:14:26;;;;;;;10.00;5.10;;;11.00;99.90;;;10.40;100.00;101959.84;4169486;28;20430;-75
2023/05/25 02:16:28;;;;;;;12.50;5.00;;;11.00;99.90;;;10.37;100.00;101954.81;4183966;28;20106;-75
2023/05/25 02:18:29;;;;;;;16.60;6.47;;;11.00;99.90;;;10.34;100.00;101961.16;4170617;28;20022;-74
2023/05/25 02:20:31;;;;;;;10.60;6.65;;;10.90;99.90;;;10.34;100.00;101961.16;4170749;28;20030;-75
2023/05/25 02:22:32;;;;;;;11.10;5.25;;;10.90;99.90;;;10.31;100.00;101968.50;4170769;28;20029;-75
2023/05/25 02:24:33;;;;;;;11.57;6.15;;;10.90;99.90;;;10.31;100.00;101960.59;4184463;28;20590;-75
2023/05/25 02:26:38;;;;;;;12.77;5.70;;;10.90;99.90;;;10.28;100.00;101951.13;4170603;28;20030;-75
2023/05/25 02:28:39;;;;;;;11.95;5.93;;;10.90;99.90;;;10.25;100.00;101964.56;4171997;28;20384;-75
2023/05/25 02:30:40;;;;;;;7.35;4.50;;;10.80;99.90;;;10.23;100.00;101968.28;4171782;28;20040;-74
2023/05/25 02:32:41;;;;;;;9.98;5.15;;;10.80;99.90;;;10.19;100.00;101969.47;4169894;28;20489;-75
2023/05/25 02:34:42;;;;;;;13.70;5.28;;;10.80;99.90;;;10.15;100.00;101968.91;4175065;28;20040;-75
2023/05/25 02:36:43;;;;;;;17.55;5.70;;;10.80;99.90;;;10.10;100.00;101964.91;4169135;28;20013;-75
2023/05/25 02:38:46;;;;;;;10.77;5.10;;;10.70;99.90;;;10.06;100.00;101968.78;4182482;28;20066;-75
2023/05/25 02:40:47;;;;;;;15.63;6.00;;;10.60;99.90;;;10.03;100.00;101970.69;4153571;28;20030;-75
2023/05/25 02:42:47;;;;;;;11.55;5.10;;;10.60;99.90;;;9.99;100.00;101965.78;4190617;28;20067;-75
2023/05/25 02:44:48;;;;;;;8.70;4.78;;;10.60;99.90;;;10.02;100.00;101976.94;4170229;28;20036;-75
2023/05/25 02:46:49;;;;;;;10.10;5.65;;;10.60;99.90;;;10.02;100.00;101974.28;4170120;28;20401;-75
2023/05/25 02:48:50;;;;;;;9.77;4.82;;;10.60;99.90;;;9.99;100.00;101976.31;4183426;28;20032;-74
2023/05/25 02:50:51;;;;;;;10.40;5.82;;;10.60;99.90;;;9.89;100.00;101963.03;4186725;28;20048;-75
2023/05/25 02:52:52;;;;;;;9.80;5.30;;;10.60;99.90;;;9.93;100.00;101964.47;4185322;28;20516;-74
2023/05/25 02:54:52;;;;;;;11.70;5.00;;;10.50;99.90;;;9.91;100.00;101971.69;4201920;28;20028;-75
2023/05/25 02:56:53;;;;;;;12.63;5.07;;;10.50;99.90;;;9.85;100.00;101964.25;4186445;28;20024;-75
2023/05/25 02:58:54;;;;;;;11.15;6.05;;;10.50;99.90;;;9.86;100.00;101965.91;4185443;28;20021;-75
2023/05/25 03:00:58;;;;;;;9.02;4.82;;;10.50;99.90;;;9.83;100.00;101963.53;4186670;28;20074;-75
2023/05/25 03:02:59;;;;;;;11.75;5.38;;;10.40;99.90;;;9.79;100.00;101959.47;4186209;28;20064;-75
2023/05/25 03:05:00;;;;;;;13.10;5.85;;;10.40;99.90;;;9.78;100.00;101954.31;4184910;28;20029;-75
2023/05/25 03:07:01;;;;;;;12.68;6.22;;;10.40;99.90;;;9.80;100.00;101963.75;4201218;28;20036;-75
2023/05/25 03:09:04;;;;;;;11.07;5.20;;;10.40;99.90;;;9.78;100.00;101954.31;4185109;28;20536;-75
2023/05/25 03:11:05;;;;;;;10.77;5.72;;;10.30;99.90;;;9.77;100.00;101950.84;4185118;28;20512;-75
2023/05/25 03:13:06;;;;;;;15.55;6.10;;;10.30;99.90;;;9.75;100.00;101951.91;4186014;28;20031;-74
2023/05/25 03:15:10;;;;;;;11.27;5.00;;;10.30;99.90;;;9.72;100.00;101947.72;4185109;28;20067;-75
2023/05/25 03:17:11;;;;;;;12.88;5.30;;;10.30;99.90;;;9.74;100.00;101951.06;4185088;28;20017;-75
2023/05/25 03:19:12;;;;;;;11.68;5.68;;;10.30;99.90;;;9.72;100.00;101945.09;4184841;28;20100;-74
2023/05/25 03:21:13;;;;;;;10.00;5.50;;;10.30;99.90;;;9.73;100.00;101946.78;4153832;28;20501;-75
2023/05/25 03:23:14;;;;;;;12.23;5.90;;;10.30;99.90;;;9.74;100.00;101951.06;4173046;28;20047;-75
2023/05/25 03:25:15;;;;;;;10.40;5.40;;;10.30;99.90;;;9.72;100.00;101952.16;4160088;28;20084;-75
2023/05/25 03:27:16;;;;;;;13.88;7.03;;;10.30;99.90;;;9.71;100.00;101953.94;4179528;28;20071;-75
2023/05/25 03:29:17;;;;;;;14.65;6.35;;;10.30;99.90;;;9.67;100.00;101944.63;4175326;28;20028;-75
2023/05/25 03:31:18;;;;;;;14.57;5.78;;;10.30;99.90;;;9.69;100.00;101945.34;4172655;28;20024;-75
2023/05/25 03:33:19;;;;;;;11.10;5.65;;;10.30;99.90;;;9.69;100.00;101950.59;4176003;28;20055;-75
2023/05/25 03:35:20;;;;;;;9.18;5.07;;;10.30;99.90;;;9.67;100.00;101952.53;4201271;28;20028;-75
2023/05/25 03:37:20;;;;;;;8.13;4.82;;;10.20;99.90;;;9.66;100.00;101950.00;4185731;28;20016;-75
2023/05/25 03:39:21;;;;;;;12.40;5.18;;;10.30;99.90;;;9.55;100.00;101932.41;4184681;28;20021;-75
2023/05/25 03:41:22;;;;;;;9.43;4.70;;;10.20;99.90;;;9.63;100.00;101950.25;4177170;28;20431;-75
2023/05/25 03:43:23;;;;;;;12.68;5.95;;;10.20;99.90;;;9.60;100.00;101939.94;4173554;28;20531;-74
2023/05/25 03:45:24;;;;;;;14.82;5.60;;;10.20;99.90;;;9.62;100.00;101948.56;4182046;28;20040;-74
2023/05/25 03:47:25;;;;;;;9.73;5.55;;;10.20;99.90;;;9.59;100.00;101948.81;4168926;28;20036;-75
2023/05/25 03:49:26;;;;;;;14.50;6.43;;;10.20;99.90;;;9.56;100.00;101941.97;4175340;28;20033;-75
2023/05/25 03:51:28;;;;;;;10.07;5.72;;;10.20;99.90;;;9.58;100.00;101942.72;4168033;28;20025;-74
2023/05/25 03:53:30;;;;;;;9.32;4.80;;;10.20;99.90;;;9.61;100.00;101947.75;4167814;28;20490;-75
2023/05/25 03:55:31;;;;;;;10.75;5.50;;;10.20;99.90;;;9.62;100.00;101954.66;4172848;28;20029;-75
2023/05/25 03:57:32;;;;;;;10.70;5.47;;;10.20;99.90;;;9.59;100.00;101949.63;4178008;28;20026;-75
2023/05/25 03:59:33;;;;;;;12.10;5.43;;;10.20;99.90;;;9.59;100.00;101949.63;4183114;28;20107;-75
2023/05/25 04:01:36;;;;;;;13.55;6.38;;;10.20;99.90;;;9.56;100.00;101949.88;4185020;28;20407;-75
2023/05/25 04:03:37;;;;;;;9.13;6.28;;;10.20;99.90;;;9.54;100.00;101946.53;4184691;28;20029;-74
2023/05/25 04:05:38;;;;;;;10.57;6.53;;;10.20;99.90;;;9.56;100.00;101943.81;4184365;28;20079;-75
2023/05/25 04:07:39;;;;;;;13.23;5.68;;;10.20;99.90;;;9.59;100.00;101954.91;4191008;28;20024;-75
2023/05/25 04:09:40;;;;;;;9.98;6.18;;;10.20;99.90;;;9.55;100.00;101953.50;4168995;28;20037;-74
2023/05/25 04:11:41;;;;;;;10.07;5.13;;;10.20;99.90;;;9.58;100.00;101953.25;4167560;28;20033;-75
2023/05/25 04:13:42;;;;;;;12.05;5.78;;;10.20;99.90;;;9.53;100.00;101949.31;4173828;28;20043;-75
2023/05/25 04:15:43;;;;;;;16.40;5.47;;;10.20;99.90;;;9.57;100.00;101950.72;4184298;28;20017;-75
2023/05/25 04:17:44;;;;;;;13.90;6.38;;;10.20;99.90;;;9.56;100.00;101954.34;4179909;28;20029;-75
2023/05/25 04:19:45;;;;;;;8.65;5.00;;;10.10;99.90;;;9.57;100.00;101956.84;4167653;28;20017;-74
2023/05/25 04:21:46;;;;;;;11.20;5.95;;;10.10;99.90;;;9.57;100.00;101954.19;4168863;28;20053;-75
2023/05/25 04:23:47;;;;;;;11.15;6.60;;;10.20;99.90;;;9.56;100.00;101941.97;4177668;28;20028;-75
2023/05/25 04:25:50;;;;;;;9.85;5.32;;;10.20;99.90;;;9.55;100.00;101948.22;4172996;28;20108;-75
2023/05/25 04:27:52;;;;;;;9.27;5.65;;;10.20;99.90;;;9.60;100.00;101955.75;4183020;28;20060;-75
2023/05/25 04:29:53;;;;;;;15.60;6.15;;;10.20;99.90;;;9.61;100.00;101957.44;4166833;28;20034;-75
2023/05/25 04:31:53;;;;;;;13.23;5.68;;;10.20;99.90;;;9.62;100.00;101954.66;4177381;28;20070;-75
2023/05/25 04:33:54;;;;;;;12.55;5.95;;;10.20;99.90;;;9.63;100.00;101961.63;4183817;28;20028;-75
2023/05/25 04:35:58;;;;;;;10.55;5.88;;;10.20;99.90;;;9.63;100.00;101961.63;4185074;28;20025;-75
2023/05/25 04:38:01;;;;;;;12.63;5.93;;;10.20;99.90;;;9.63;100.00;101961.63;4184061;28;20102;-75
2023/05/25 04:40:07;;;;;;;11.35;5.28;;;10.20;99.90;;;9.64;100.00;101959.84;4185133;28;20078;-75
2023/05/25 04:42:08;;;;;;;16.77;6.30;;;10.20;99.90;;;9.64;100.00;101962.47;4185001;28;20029;-74
2023/05/25 04:44:09;;;;;;;16.08;5.75;;;10.20;99.90;;;9.63;100.00;101955.50;4168607;28;20032;-75
2023/05/25 04:46:12;;;;;;;14.75;6.47;;;10.20;99.90;;;9.63;100.00;101966.91;4173233;28;20028;-75
2023/05/25 04:48:13;;;;;;;10.25;5.50;;;10.20;99.90;;;9.61;100.00;101963.56;4174087;28;20080;-75
2023/05/25 04:50:14;;;;;;;15.00;6.70;;;10.20;99.90;;;9.61;100.00;101966.19;4167354;28;20125;-75
2023/05/25 04:52:15;;;;;;;14.57;6.50;;;10.20;99.90;;;9.66;100.00;101971.94;4173630;28;20436;-75
2023/05/25 04:54:16;;;;;;;16.23;6.63;;;10.20;99.90;;;9.68;100.00;101970.00;4184019;28;20028;-75
2023/05/25 04:56:17;;;;;;;15.23;6.75;;;10.30;99.90;;;9.73;100.00;101981.03;4167504;28;20104;-75
2023/05/25 04:58:17;;;;;;;11.52;6.35;;;10.30;99.90;;;9.80;100.00;101984.00;4167246;28;20389;-74
2023/05/25 05:00:19;;;;;;;13.15;6.30;;;10.40;99.90;;;9.84;100.00;101986.28;4184132;28;20025;-75
2023/05/25 05:02:20;;;;;;;11.43;5.65;;;10.40;99.90;;;9.90;100.00;101988.44;4183611;28;20025;-75
2023/05/25 05:04:21;;;;;;;9.95;6.60;;;10.40;99.90;;;9.92;100.00;101980.41;4184934;28;20090;-75
2023/05/25 05:06:24;;;;;;;16.67;5.97;;;10.50;99.90;;;9.93;100.00;101980.28;4171191;28;20501;-75
2023/05/25 05:08:25;;;;;;;10.10;5.68;;;10.50;99.90;;;10.06;100.00;101988.06;4184059;28;20060;-75
2023/05/25 05:10:26;;;;;;;17.92;7.20;;;10.60;99.90;;;10.08;100.00;101990.56;4183710;28;20132;-75
2023/05/25 05:12:27;;;;;;;12.98;6.28;;;10.60;99.90;;;10.15;100.00;101986.53;4183750;28;20037;-75
2023/05/25 05:14:28;;;;;;;13.05;6.65;;;10.70;99.90;;;10.19;100.00;101986.16;4184779;28;20075;-75
2023/05/25 05:16:32;;;;;;;16.95;6.40;;;10.70;99.90;;;10.24;100.00;101989.28;4183272;28;20025;-75
2023/05/25 05:18:33;;;;;;;16.27;6.93;;;10.80;99.90;;;10.27;100.00;101978.47;4184852;28;20028;-74
2023/05/25 05:20:34;;;;;;;17.45;6.57;;;10.80;99.90;;;10.35;100.00;101988.41;4183883;28;20025;-74
2023/05/25 05:22:37;;;;;;;15.88;6.45;;;10.90;99.90;;;10.35;100.00;101986.59;4200332;28;20021;-75
2023/05/25 05:24:38;;;;;;;12.80;6.82;;;10.90;99.90;;;10.43;100.00;101991.25;4183562;28;20029;-75
2023/05/25 05:26:39;;;;;;;12.23;6.15;;;11.00;99.90;;;10.45;100.00;101999.88;4183511;28;20025;-75
2023/05/25 05:28:40;;;;;;;14.38;6.47;;;11.00;99.90;;;10.48;100.00;101999.63;4174380;28;20025;-75
2023/05/25 05:30:42;;;;;;;14.55;6.97;;;11.10;99.90;;;10.53;100.00;101994.81;4174207;28;20068;-75
2023/05/25 05:32:43;;;;;;;13.55;5.88;;;11.10;99.90;;;10.58;100.00;102003.19;4185381;28;20488;-75
2023/05/25 05:34:44;;;;;;;13.13;6.53;;;11.10;99.90;;;10.56;100.00;101991.94;4170098;28;20033;-75
2023/05/25 05:36:45;;;;;;;11.68;6.30;;;11.10;99.90;;;10.67;100.00;102004.22;4170065;28;20440;-75
2023/05/25 05:38:46;;;;;;;12.18;6.35;;;11.20;99.90;;;10.69;100.00;102005.81;4171120;28;20496;-75
2023/05/25 05:40:47;;;;;;;13.18;5.85;;;11.20;99.90;;;10.75;100.00;102002.63;4170093;28;20037;-75
2023/05/25 05:42:49;;;;;;;14.80;6.70;;;11.30;99.90;;;10.81;100.00;102010.03;4174929;28;20025;-74
2023/05/25 05:44:50;;;;;;;12.73;6.93;;;11.30;99.90;;;10.85;100.00;102011.47;4170019;28;20112;-75
2023/05/25 05:46:51;;;;;;;11.88;7.10;;;11.40;99.90;;;10.88;100.00;102005.09;4182806;28;20032;-74
2023/05/25 05:48:52;;;;;;;12.55;6.78;;;11.40;99.90;;;10.93;100.00;102016.13;4186175;28;20057;-75
2023/05/25 05:50:52;;;;;;;16.55;6.20;;;11.50;99.90;;;10.94;100.00;102000.16;4187663;28;20503;-74
2023/05/25 05:52:53;;;;;;;10.80;6.07;;;11.50;99.90;;;11.03;100.00;102011.75;4186324;28;20033;-75
2023/05/25 05:54:55;;;;;;;16.27;6.68;;;11.60;99.90;;;11.06;100.00;102003.56;4202912;28;20138;-74
2023/05/25 05:56:56;;;;;;;13.55;6.18;;;11.60;99.90;;;11.09;100.00;102000.69;4186233;28;20035;-75
2023/05/25 05:58:57;;;;;;;13.43;6.15;;;11.60;99.90;;;11.16;100.00;101995.72;4202888;28;20028;-75
2023/05/25 06:00:58;;;;;;;12.07;5.50;;;11.70;99.90;;;11.21;100.00;101996.16;4186160;28;20092;-75
2023/05/25 06:02:59;;;;;;;16.30;6.65;;;11.70;99.90;;;11.26;100.00;101999.28;4187404;28;20067;-74
2023/05/25 06:05:00;;;;;;;12.05;5.57;;;11.80;99.90;;;11.32;100.00;101998.75;4186444;28;20025;-75
2023/05/25 06:07:01;;;;;;;13.90;6.45;;;11.80;99.90;;;11.45;100.00;101994.06;4175859;28;20500;-75
2023/05/25 06:09:05;;;;;;;12.18;5.80;;;11.90;99.90;;;11.55;100.00;101997.63;4178391;28;20026;-75
2023/05/25 06:11:06;;;;;;;15.80;6.93;;;12.00;99.90;;;11.58;100.00;102000.00;4174754;28;20106;-74
2023/05/25 06:13:07;;;;;;;16.83;6.10;;;12.10;99.90;;;11.59;100.00;101988.44;4185127;28;20068;-75
2023/05/25 06:15:08;;;;;;;14.10;6.50;;;12.10;99.90;;;11.62;100.00;101982.88;4186121;28;20044;-74
2023/05/25 06:17:09;;;;;;;13.38;6.05;;;12.10;99.90;;;11.71;100.00;101990.06;4185691;28;20040;-75
2023/05/25 06:19:11;;;;;;;16.77;7.13;;;12.20;99.90;;;11.75;100.00;101991.47;4187254;28;20044;-75
2023/05/25 06:21:11;;;;;;;15.40;6.75;;;12.30;99.90;;;11.82;100.00;101991.78;4185766;28;20059;-75
2023/05/25 06:23:12;;;;;;;15.10;7.60;;;12.30;99.90;;;11.87;100.00;101981.63;4187165;28;20025;-75
2023/05/25 06:25:14;;;;;;;17.52;6.45;;;12.40;99.90;;;11.91;100.00;101978.59;4185961;28;20025;-74
2023/05/25 06:27:16;;;;;;;14.60;6.10;;;12.50;99.90;;;12.19;100.00;101979.63;4185862;28;20108;-75
2023/05/25 06:29:17;;;;;;;15.45;6.20;;;12.60;99.90;;;12.73;100.00;101989.72;4185848;28;20488;-75
2023/05/25 06:31:18;;;;;;;18.30;6.07;;;12.80;99.90;;;13.01;100.00;101983.56;4186756;28;20033;-75
2023/05/25 06:33:18;;;;;;;14.90;6.32;;;13.00;99.90;;;13.06;100.00;101985.78;4186917;28;20503;-75
2023/05/25 06:35:19;;;;;;;14.05;5.85;;;13.10;99.90;;;12.96;100.00;101975.19;4186887;28;20051;-75
2023/05/25 06:37:20;;;;;;;10.80;5.85;;;13.20;99.90;;;12.92;100.00;101970.34;4185580;28;20112;-75
2023/05/25 06:39:21;;;;;;;13.35;6.63;;;13.20;99.90;;;12.84;100.00;101971.06;4183481;28;20025;-75
2023/05/25 06:41:22;;;;;;;11.00;5.55;;;13.30;99.90;;;12.85;100.00;101972.72;4174623;28;20021;-75
2023/05/25 06:43:23;;;;;;;11.95;4.80;;;13.30;99.90;;;12.83;100.00;101974.66;4176561;28;20029;-75
2023/05/25 06:45:24;;;;;;;12.50;5.93;;;13.30;99.90;;;12.80;100.00;101964.38;4170144;28;20037;-75
2023/05/25 06:47:25;;;;;;;19.30;6.68;;;13.40;99.90;;;12.86;100.00;101963.78;4172269;28;20021;-75
2023/05/25 06:49:26;;;;;;;14.80;5.90;;;13.40;99.90;;;12.92;100.00;101976.47;4170301;28;20034;-75
2023/05/25 06:51:27;;;;;;;17.23;6.57;;;13.40;99.90;;;12.94;100.00;101969.22;4170157;28;20040;-75
2023/05/25 06:53:28;;;;;;;13.45;5.90;;;13.50;99.90;;;12.97;100.00;101950.41;4168254;28;20040;-76
2023/05/25 06:55:29;;;;;;;11.43;6.80;;;13.50;99.90;;;13.05;100.00;101953.16;4183259;28;20481;-76
2023/05/25 06:57:30;;;;;;;15.05;5.32;;;13.60;99.90;;;13.16;100.00;101966.28;4175477;28;20033;-75
2023/05/25 06:59:31;;;;;;;13.65;5.75;;;13.70;99.90;;;13.29;100.00;101972.09;4186787;28;20017;-76
2023/05/25 07:01:31;;;;;;;17.15;6.07;;;13.70;99.90;;;13.30;100.00;101968.47;4186248;28;20374;-76
2023/05/25 07:03:32;;;;;;;12.52;6.28;;;13.80;99.90;;;13.34;100.00;101965.53;4183278;28;20025;-76
2023/05/25 07:05:33;;;;;;;17.80;5.30;;;13.90;99.90;;;13.41;100.00;101974.59;4173956;28;20055;-76
2023/05/25 07:07:34;;;;;;;14.23;6.00;;;13.90;99.90;;;13.45;100.00;101970.66;4177554;28;20056;-76
2023/05/25 07:09:35;;;;;;;11.73;5.28;;;13.90;99.90;;;13.52;100.00;101963.81;4186412;28;20052;-76
2023/05/25 07:11:36;;;;;;;12.63;6.40;;;14.00;99.90;;;13.59;100.00;101956.97;4186164;28;20551;-76
2023/05/25 07:13:37;;;;;;;10.05;4.85;;;14.10;99.90;;;13.69;100.00;101971.00;4180621;28;20034;-76
2023/05/25 07:15:37;;;;;;;14.80;5.75;;;14.20;99.90;;;13.72;100.00;101968.06;4169914;28;20151;-76
2023/05/25 07:17:39;;;;;;;13.52;5.72;;;14.30;99.90;;;13.80;100.00;101960.19;4180634;28;20033;-76
2023/05/25 07:19:42;;;;;;;11.57;5.32;;;14.30;99.90;;;13.96;100.00;101972.81;4168297;28;20033;-76
2023/05/25 07:21:43;;;;;;;10.02;5.70;;;14.40;99.90;;;13.99;100.00;101965.41;4180377;28;20037;-74
2023/05/25 07:23:43;;;;;;;11.32;5.55;;;14.50;99.90;;;14.09;100.00;101970.66;4169811;28;20021;-75
2023/05/25 07:25:44;;;;;;;13.75;6.07;;;14.60;99.90;;;14.18;100.00;101980.38;4169565;28;20049;-74
2023/05/25 07:27:49;;;;;;;14.88;5.47;;;14.70;99.90;;;14.17;100.00;101968.09;4169608;28;20032;-75
2023/05/25 07:29:50;;;;;;;16.17;5.40;;;14.70;99.90;;;14.30;100.00;101979.19;4174115;28;20033;-74
2023/05/25 07:31:51;;;;;;;13.20;5.75;;;14.80;99.90;;;14.36;100.00;101968.84;4169341;28;20025;-75
2023/05/25 07:33:54;;;;;;;12.88;5.72;;;14.90;99.90;;;14.47;100.00;101982.84;4168018;28;20040;-75
2023/05/25 07:35:55;;;;;;;13.57;5.20;;;15.00;99.90;;;14.56;100.00;101968.69;4185247;28;20025;-75
2023/05/25 07:38:00;;;;;;;11.18;5.85;;;15.10;99.90;;;14.60;100.00;101968.25;4169490;28;20048;-75
2023/05/25 07:40:02;;;;;;;12.15;5.30;;;15.10;99.90;;;14.61;100.00;101967.22;4177718;28;20462;-75
2023/05/25 07:42:03;;;;;;;15.52;5.75;;;15.20;99.90;;;14.67;100.00;101965.78;4173448;28;20177;-75
2023/05/25 07:44:04;;;;;;;10.55;5.50;;;15.20;99.90;;;14.71;100.00;101969.81;4178788;28;20029;-74
2023/05/25 07:46:05;;;;;;;17.67;6.68;;;15.30;99.90;;;14.77;100.00;101972.69;4179661;28;20064;-74
2023/05/25 07:48:08;;;;;;;15.70;7.07;;;15.30;99.90;;;14.88;100.00;101968.94;4176958;28;20192;-74
2023/05/25 07:50:09;;;;;;;17.58;6.43;;;15.40;99.90;;;14.93;100.00;101980.78;4151712;28;20076;-75
2023/05/25 07:52:11;;;;;;;13.52;6.75;;;15.40;99.90;;;14.84;100.00;101960.44;4199807;28;20017;-76
2023/05/25 07:54:12;;;;;;;16.77;7.00;;;15.50;99.90;;;15.01;100.00;101955.28;4185261;28;20029;-76
2023/05/25 07:56:13;;;;;;;15.07;7.22;;;15.50;99.90;;;15.08;100.00;101965.13;4182726;28;20021;-75
2023/05/25 07:58:14;;;;;;;16.02;7.50;;;15.60;99.90;;;15.16;100.00;101967.84;4172968;28;20071;-76
2023/05/25 08:00:15;;;;;;;17.75;7.88;;;15.70;99.90;;;15.25;99.53;101966.06;4169095;28;20033;-76
2023/05/25 08:02:16;;;;;;;15.60;8.35;;;15.70;99.90;;;15.31;99.88;101960.13;4168910;28;20029;-76
2023/05/25 08:04:17;;;;;;;14.68;8.13;;;15.80;99.90;;;15.47;98.71;101963.72;4177362;28;20025;-76
2023/05/25 08:06:18;;;;;;;17.40;7.55;;;15.90;99.90;;;15.60;98.49;101970.44;4173071;28;20045;-76
2023/05/25 08:08:19;;;;;;;16.10;7.65;;;16.00;99.90;;;15.64;97.44;101963.84;4183852;28;20021;-76
2023/05/25 08:10:20;;;;;;;20.20;8.57;;;16.10;99.90;;;15.71;96.51;101956.88;4185490;28;20056;-76
2023/05/25 08:12:21;;;;;;;14.27;7.47;;;16.20;99.90;;;15.82;96.99;101965.41;4184302;28;20029;-76
2023/05/25 08:14:22;;;;;;;19.65;9.02;;;16.30;99.90;;;15.77;95.64;101957.06;4172789;28;20044;-76
2023/05/25 08:16:23;;;;;;;16.17;9.02;;;16.40;99.90;;;15.80;95.74;101955.94;4183898;28;20013;-76
2023/05/25 08:18:24;;;;;;;18.42;8.57;;;16.40;99.90;;;15.99;95.24;101961.81;4168915;28;20033;-76
2023/05/25 08:20:25;;;;;;;17.73;8.65;;;16.50;99.90;;;16.17;93.53;101967.00;4175288;28;20388;-76